Time;durP1;ratioP1;P1;durP2;ratioP2;P2;SDS_P1;SDS_P2;PMS_P1;PMS_P2;Temp;Humidity;BMP_temperature;BMP_pressure;BME280_temperature;BME280_humidity;BME280_pressure;Samples;Min_cycle;Max_cycle;Signal;HPM_P1;HPM_P2
2022/12/25 00:02:05;;;;;;;117.85;79.72;;;18.90;73.20;;;;;;4929561;28;90016;-52
2022/12/25 00:04:30;;;;;;;109.60;76.75;;;18.90;73.00;;;;;;4916278;28;92377;-47
2022/12/25 00:06:58;;;;;;;107.97;75.68;;;18.90;72.80;;;;;;4911845;28;90928;-50
2022/12/25 00:09:24;;;;;;;105.45;75.90;;;18.90;72.60;;;;;;4934295;28;96245;-51
2022/12/25 00:11:49;;;;;;;100.63;72.97;;;18.90;72.50;;;;;;4935503;28;91260;-52
2022/12/25 00:14:15;;;;;;;101.10;72.10;;;18.90;72.10;;;;;;4915647;28;90115;-51
2022/12/25 00:16:41;;;;;;;99.60;72.25;;;19.00;72.00;;;;;;4921368;28;91939;-52
2022/12/25 00:19:06;;;;;;;100.15;71.38;;;19.00;72.00;;;;;;4929244;28;90790;-49
2022/12/25 00:21:32;;;;;;;98.72;70.88;;;19.00;71.70;;;;;;4930355;28;90350;-51
2022/12/25 00:23:58;;;;;;;98.65;67.97;;;19.00;71.70;;;;;;4928128;28;89752;-49
2022/12/25 00:26:25;;;;;;;94.47;68.20;;;19.00;71.30;;;;;;4926171;28;91953;-50
2022/12/25 00:28:56;;;;;;;96.05;69.05;;;19.00;71.50;;;;;;4932207;28;90981;-49
2022/12/25 00:31:22;;;;;;;97.25;67.70;;;19.00;71.40;;;;;;4930154;28;91728;-48
2022/12/25 00:33:50;;;;;;;95.20;68.13;;;18.90;71.30;;;;;;4924632;28;91742;-53
2022/12/25 00:36:18;;;;;;;93.85;68.90;;;18.90;71.00;;;;;;4923551;28;90333;-49
2022/12/25 00:38:44;;;;;;;95.25;67.40;;;18.90;71.30;;;;;;4931049;28;92161;-50
2022/12/25 00:41:12;;;;;;;93.25;65.15;;;18.90;71.00;;;;;;4922352;28;90367;-54
2022/12/25 00:43:40;;;;;;;87.63;63.90;;;18.90;70.90;;;;;;4920928;28;90037;-48
2022/12/25 00:46:06;;;;;;;92.45;66.25;;;19.00;71.10;;;;;;4920800;28;94023;-49
2022/12/25 00:48:33;;;;;;;91.95;65.07;;;18.90;71.00;;;;;;4932638;28;89388;-53
2022/12/25 00:51:03;;;;;;;93.18;65.10;;;18.90;70.90;;;;;;4921136;28;91339;-52
2022/12/25 00:53:29;;;;;;;91.30;64.80;;;18.90;70.90;;;;;;4924995;28;90305;-57
2022/12/25 00:56:03;;;;;;;91.50;64.25;;;18.90;70.70;;;;;;4919228;28;93061;-53
2022/12/25 00:58:31;;;;;;;89.93;63.45;;;18.90;71.60;;;;;;4925036;28;96504;-51
2022/12/25 01:00:57;;;;;;;87.90;63.13;;;18.80;70.70;;;;;;4915697;28;90177;-52
2022/12/25 01:03:24;;;;;;;87.70;63.08;;;18.80;71.00;;;;;;4925664;28;95675;-53
2022/12/25 01:05:58;;;;;;;87.88;62.40;;;18.80;71.00;;;;;;4925386;28;93074;-50
2022/12/25 01:08:24;;;;;;;86.72;61.92;;;18.80;71.20;;;;;;4936845;28;90221;-53
2022/12/25 01:10:57;;;;;;;86.03;62.30;;;18.70;71.10;;;;;;4923609;28;90555;-53
2022/12/25 01:13:23;;;;;;;87.95;61.47;;;18.70;71.20;;;;;;4920354;28;88932;-50
2022/12/25 01:15:51;;;;;;;83.95;60.65;;;18.70;71.30;;;;;;4920998;28;90079;-51
2022/12/25 01:18:20;;;;;;;83.97;60.88;;;18.60;71.50;;;;;;4930291;28;95744;-50
2022/12/25 01:20:46;;;;;;;87.05;60.53;;;18.60;71.40;;;;;;4925540;28;91815;-53
2022/12/25 01:23:12;;;;;;;84.65;60.47;;;18.60;71.50;;;;;;4913339;28;91632;-52
2022/12/25 01:25:37;;;;;;;85.45;60.20;;;18.60;71.60;;;;;;4927975;28;90030;-53
2022/12/25 01:28:04;;;;;;;84.70;60.03;;;18.60;71.50;;;;;;4929634;28;90384;-54
2022/12/25 01:30:30;;;;;;;83.10;59.67;;;18.60;71.60;;;;;;4922720;28;92431;-52
2022/12/25 01:32:56;;;;;;;83.70;60.25;;;18.50;71.40;;;;;;4924109;28;91365;-50
2022/12/25 01:35:22;;;;;;;83.63;59.80;;;18.60;71.40;;;;;;4919848;28;92808;-51
2022/12/25 01:37:48;;;;;;;83.28;59.42;;;18.60;71.50;;;;;;4931662;28;89618;-50
2022/12/25 01:40:14;;;;;;;84.57;58.90;;;18.50;71.40;;;;;;4922755;28;91093;-49
2022/12/25 01:42:40;;;;;;;81.03;57.97;;;18.50;71.20;;;;;;4926209;28;99830;-51
2022/12/25 01:45:33;;;;;;;85.15;60.03;;;18.50;71.20;;;;;;4924975;28;90990;-50
2022/12/25 01:48:02;;;;;;;82.00;58.42;;;18.50;71.50;;;;;;4920715;28;90013;-49
2022/12/25 01:50:28;;;;;;;81.38;58.33;;;18.50;71.40;;;;;;4931164;28;89843;-51
2022/12/25 01:52:55;;;;;;;82.00;58.20;;;18.50;71.50;;;;;;4924185;28;91338;-50
2022/12/25 01:55:21;;;;;;;82.70;58.20;;;18.40;71.40;;;;;;4920452;28;94197;-51
2022/12/25 01:57:47;;;;;;;77.18;56.05;;;18.50;71.50;;;;;;4927165;28;91358;-52
2022/12/25 02:00:15;;;;;;;78.10;56.67;;;18.40;71.40;;;;;;4926658;28;92446;-52
2022/12/25 02:02:41;;;;;;;83.13;58.03;;;18.40;71.30;;;;;;4929506;28;90294;-51
2022/12/25 02:05:11;;;;;;;81.10;57.72;;;18.40;71.50;;;;;;4927207;28;95469;-52
2022/12/25 02:07:40;;;;;;;79.07;57.08;;;18.40;71.40;;;;;;4926432;28;89716;-51
2022/12/25 02:10:07;;;;;;;77.70;56.15;;;18.40;71.40;;;;;;4926575;28;91586;-51
2022/12/25 02:12:34;;;;;;;80.25;56.53;;;18.40;71.40;;;;;;4925634;28;91058;-50
2022/12/25 02:15:10;;;;;;;78.47;56.72;;;18.40;71.50;;;;;;4916465;28;89826;-52
2022/12/25 02:17:49;;;;;;;77.03;56.13;;;18.30;71.60;;;;;;4923223;28;91743;-51
2022/12/25 02:20:24;;;;;;;79.28;56.17;;;18.30;71.50;;;;;;4928771;28;92690;-48
2022/12/25 02:23:05;;;;;;;77.88;56.15;;;18.30;71.50;;;;;;4933757;28;91512;-49
2022/12/25 02:25:33;;;;;;;;;;;18.30;71.60;;;;;;4917588;28;92268;-52
2022/12/25 02:28:24;;;;;;;77.70;55.50;;;18.30;71.60;;;;;;4929221;28;89619;-50
2022/12/25 02:31:00;;;;;;;78.65;55.90;;;18.30;71.80;;;;;;4920784;28;91871;-49
2022/12/25 02:36:23;;;;;;;78.45;55.65;;;18.20;71.90;;;;;;4923396;28;96254;-50
2022/12/25 02:41:43;;;;;;;74.32;54.78;;;18.20;71.70;;;;;;4926348;28;90858;-52
2022/12/25 03:07:06;;;;;;;74.00;53.90;;;18.00;71.80;;;;;;4930825;28;91130;-51
2022/12/25 03:12:49;;;;;;;74.88;54.15;;;18.00;72.00;;;;;;4926569;28;90451;-48
2022/12/25 03:18:05;;;;;;;75.60;54.35;;;17.90;72.00;;;;;;4922955;28;90636;-49
2022/12/25 03:28:49;;;;;;;74.30;53.35;;;17.90;72.10;;;;;;4922025;28;90689;-49
2022/12/25 03:31:19;;;;;;;72.57;53.33;;;17.80;72.00;;;;;;4917591;28;91106;-53
2022/12/25 04:37:55;;;;;;;71.32;51.97;;;17.50;72.20;;;;;;4925228;28;90722;-49
2022/12/25 04:40:21;;;;;;;70.55;51.88;;;17.50;72.20;;;;;;4918284;28;90103;-49
2022/12/25 04:42:49;;;;;;;71.30;52.15;;;17.50;72.30;;;;;;4921212;28;90536;-48
2022/12/25 04:45:15;;;;;;;70.82;52.42;;;17.50;72.20;;;;;;4920066;28;90849;-47
2022/12/25 04:47:41;;;;;;;70.38;51.58;;;17.50;72.80;;;;;;4922245;28;90516;-48
2022/12/25 04:50:07;;;;;;;71.38;52.28;;;17.50;72.10;;;;;;4921781;28;90164;-47
2022/12/25 04:52:37;;;;;;;70.18;51.78;;;17.50;72.20;;;;;;4936023;28;92072;-51
2022/12/25 04:55:03;;;;;;;71.55;52.00;;;17.50;72.10;;;;;;4931112;28;91380;-51
2022/12/25 04:57:29;;;;;;;71.75;52.10;;;17.50;72.30;;;;;;4924705;28;89701;-52
2022/12/25 04:59:55;;;;;;;71.05;51.88;;;17.50;72.20;;;;;;4918538;28;91387;-49
2022/12/25 05:02:20;;;;;;;70.25;51.67;;;17.50;72.20;;;;;;4921063;28;92284;-48
2022/12/25 05:04:46;;;;;;;71.03;51.95;;;17.40;72.10;;;;;;4922711;28;90307;-48
2022/12/25 05:07:12;;;;;;;70.43;51.97;;;17.40;72.00;;;;;;4919114;28;91150;-52
2022/12/25 05:09:40;;;;;;;69.55;51.38;;;17.40;72.10;;;;;;4919969;28;94813;-47
2022/12/25 05:12:09;;;;;;;70.28;51.65;;;17.40;72.10;;;;;;4928633;28;91566;-49
2022/12/25 05:14:35;;;;;;;70.05;52.35;;;17.40;72.10;;;;;;4926499;28;90495;-48
2022/12/25 05:17:01;;;;;;;69.78;51.65;;;17.40;72.10;;;;;;4918147;28;96771;-47
2022/12/25 05:19:26;;;;;;;70.45;52.25;;;17.40;72.10;;;;;;4914794;28;91154;-50
2022/12/25 05:21:53;;;;;;;70.70;51.85;;;17.30;72.10;;;;;;4931577;28;91191;-52
2022/12/25 05:24:19;;;;;;;69.70;51.58;;;17.40;72.30;;;;;;4921383;28;94060;-47
2022/12/25 05:26:45;;;;;;;70.07;52.03;;;17.30;72.00;;;;;;4916801;28;94940;-47
2022/12/25 05:29:11;;;;;;;69.57;51.78;;;17.30;72.00;;;;;;4926441;28;90236;-49
2022/12/25 05:31:36;;;;;;;69.97;51.38;;;17.30;72.30;;;;;;4928525;28;90214;-49
2022/12/25 05:34:02;;;;;;;69.90;51.53;;;17.30;72.20;;;;;;4928337;28;89225;-52
2022/12/25 05:36:28;;;;;;;69.30;51.58;;;17.30;72.20;;;;;;4922329;28;92000;-50
2022/12/25 05:38:54;;;;;;;70.93;52.13;;;17.30;72.10;;;;;;4924872;28;93441;-48
2022/12/25 05:41:19;;;;;;;70.10;51.72;;;17.20;72.10;;;;;;4924788;28;91228;-48
2022/12/25 05:43:45;;;;;;;69.85;51.55;;;17.30;72.30;;;;;;4917656;28;91983;-50
2022/12/25 05:46:12;;;;;;;70.22;51.72;;;17.30;72.10;;;;;;4918157;28;89855;-48
2022/12/25 05:48:38;;;;;;;72.13;51.90;;;17.20;72.20;;;;;;4928995;28;91726;-52
2022/12/25 05:51:05;;;;;;;70.50;51.47;;;17.30;72.20;;;;;;4924762;28;94697;-51
2022/12/25 05:53:31;;;;;;;69.82;51.97;;;17.30;72.30;;;;;;4922124;28;90528;-51
2022/12/25 05:56:03;;;;;;;69.95;51.67;;;17.20;72.20;;;;;;4920611;28;90813;-49
2022/12/25 05:58:30;;;;;;;69.40;51.25;;;17.20;72.10;;;;;;4923519;28;93626;-46
2022/12/25 06:00:57;;;;;;;70.47;51.72;;;17.30;72.20;;;;;;4924348;28;91179;-48
2022/12/25 06:03:23;;;;;;;69.78;51.78;;;17.20;72.20;;;;;;4922719;28;90639;-48
2022/12/25 06:05:48;;;;;;;70.15;51.72;;;17.20;72.30;;;;;;4917374;28;91241;-47
2022/12/25 06:08:14;;;;;;;69.90;51.20;;;17.20;72.30;;;;;;4927208;28;91221;-48
2022/12/25 06:10:40;;;;;;;71.97;52.05;;;17.20;72.20;;;;;;4920665;28;90302;-47
2022/12/25 06:13:05;;;;;;;70.28;51.72;;;17.20;72.10;;;;;;4913204;28;93895;-48
2022/12/25 06:15:31;;;;;;;70.55;52.03;;;17.20;72.30;;;;;;4918997;28;89983;-48
2022/12/25 06:17:59;;;;;;;70.38;51.72;;;17.20;72.20;;;;;;4921834;28;91334;-49
2022/12/25 06:20:25;;;;;;;70.30;51.65;;;17.10;72.20;;;;;;4914527;28;91477;-48
2022/12/25 06:22:50;;;;;;;69.53;51.67;;;17.10;72.30;;;;;;4920497;28;91088;-50
2022/12/25 06:25:16;;;;;;;70.68;51.40;;;17.10;72.30;;;;;;4916625;28;90313;-51
2022/12/25 06:27:42;;;;;;;72.45;51.78;;;17.10;72.40;;;;;;4921747;28;89768;-51
2022/12/25 06:30:08;;;;;;;69.75;51.25;;;17.10;72.20;;;;;;4927941;28;91108;-47
2022/12/25 06:32:33;;;;;;;69.28;51.38;;;17.10;72.10;;;;;;4917151;28;90859;-52
2022/12/25 06:34:59;;;;;;;70.25;51.40;;;17.10;72.20;;;;;;4924952;28;90261;-48
2022/12/25 06:37:25;;;;;;;71.07;51.22;;;17.10;72.60;;;;;;4917766;28;90589;-50
2022/12/25 06:39:51;;;;;;;71.97;51.45;;;17.10;72.10;;;;;;4922344;28;92961;-53
2022/12/25 06:42:16;;;;;;;69.85;51.17;;;17.10;72.20;;;;;;4914687;28;91178;-47
2022/12/25 06:44:42;;;;;;;69.70;51.00;;;17.10;72.10;;;;;;4916431;28;89888;-50
2022/12/25 06:47:08;;;;;;;69.40;51.38;;;17.10;72.10;;;;;;4912697;28;90233;-49
2022/12/25 06:49:34;;;;;;;70.72;51.42;;;17.10;72.20;;;;;;4920842;28;90137;-50
2022/12/25 06:51:59;;;;;;;70.45;51.35;;;17.10;72.10;;;;;;4924688;28;90474;-51
2022/12/25 06:54:25;;;;;;;69.70;51.17;;;17.10;72.90;;;;;;4920258;28;92799;-49
2022/12/25 06:56:50;;;;;;;73.00;50.92;;;17.10;72.10;;;;;;4923769;28;90785;-48
2022/12/25 06:59:16;;;;;;;70.78;50.97;;;17.10;72.20;;;;;;4926922;28;91689;-49
2022/12/25 07:01:48;;;;;;;71.13;51.25;;;17.10;72.10;;;;;;4924889;28;89783;-51
2022/12/25 07:04:37;;;;;;;70.13;51.33;;;17.10;72.10;;;;;;4936341;28;89978;-48
2022/12/25 07:07:04;;;;;;;71.63;51.10;;;17.10;72.30;;;;;;4920518;28;92290;-49
2022/12/25 07:09:30;;;;;;;71.07;51.08;;;17.00;72.20;;;;;;4927467;28;90250;-49
2022/12/25 07:12:24;;;;;;;69.57;51.00;;;17.10;72.90;;;;;;4916964;28;91664;-49
2022/12/25 07:14:54;;;;;;;69.88;51.17;;;17.10;72.20;;;;;;4918575;28;90478;-48
2022/12/25 07:17:20;;;;;;;68.90;51.13;;;17.10;72.20;;;;;;4926045;28;91566;-48
2022/12/25 07:19:46;;;;;;;68.80;50.67;;;17.10;72.10;;;;;;4919238;28;91343;-50
2022/12/25 07:22:13;;;;;;;70.32;51.17;;;17.10;72.10;;;;;;4930620;28;90786;-49
2022/12/25 07:24:38;;;;;;;71.07;51.30;;;17.00;72.10;;;;;;4927574;28;89663;-51
2022/12/25 07:27:04;;;;;;;69.88;51.47;;;17.00;72.30;;;;;;4932091;28;89905;-50
2022/12/25 07:29:29;;;;;;;72.00;51.17;;;17.00;72.20;;;;;;4925555;28;90380;-48
2022/12/25 07:31:55;;;;;;;70.72;50.88;;;17.00;73.00;;;;;;4931465;28;91099;-48
2022/12/25 07:34:22;;;;;;;70.50;51.03;;;17.00;72.20;;;;;;4924836;28;91569;-49
2022/12/25 07:36:48;;;;;;;69.68;51.20;;;17.00;72.10;;;;;;4925915;28;89453;-49
2022/12/25 07:39:15;;;;;;;69.57;51.13;;;17.00;72.30;;;;;;4920696;28;99544;-52
2022/12/25 07:41:41;;;;;;;68.80;50.63;;;17.00;72.20;;;;;;4924212;28;89852;-47
2022/12/25 07:44:06;;;;;;;70.05;50.67;;;17.00;72.10;;;;;;4918330;28;93480;-47
2022/12/25 07:46:32;;;;;;;69.38;50.67;;;17.00;72.10;;;;;;4925863;28;89816;-50
2022/12/25 07:48:58;;;;;;;69.28;51.00;;;17.00;72.00;;;;;;4930047;28;92292;-50
2022/12/25 07:51:24;;;;;;;68.70;51.08;;;17.00;72.20;;;;;;4920420;28;94727;-52
2022/12/25 07:53:50;;;;;;;71.15;51.45;;;17.00;72.20;;;;;;4915839;28;91475;-52
2022/12/25 07:56:18;;;;;;;68.28;50.88;;;17.00;72.30;;;;;;4925034;28;90155;-51
2022/12/25 07:58:45;;;;;;;69.00;50.78;;;17.00;72.10;;;;;;4922896;28;90051;-47
2022/12/25 08:01:16;;;;;;;69.20;51.20;;;17.00;72.00;;;;;;4927792;28;89888;-48
2022/12/25 08:03:43;;;;;;;69.15;51.28;;;17.00;72.00;;;;;;4926058;28;93449;-49
2022/12/25 08:06:10;;;;;;;70.43;50.78;;;17.00;72.10;;;;;;4922840;28;92674;-49
2022/12/25 08:08:37;;;;;;;68.95;50.97;;;16.90;72.10;;;;;;4928847;28;91895;-50
2022/12/25 08:11:03;;;;;;;69.10;50.53;;;17.00;72.10;;;;;;4923285;28;90117;-48
2022/12/25 08:13:32;;;;;;;69.53;51.15;;;16.90;72.00;;;;;;4925953;28;91267;-48
2022/12/25 08:15:59;;;;;;;70.35;50.53;;;17.00;72.00;;;;;;4928658;28;89847;-47
2022/12/25 08:18:25;;;;;;;70.78;51.15;;;16.90;71.80;;;;;;4927769;28;90265;-47
2022/12/25 08:20:51;;;;;;;68.50;50.80;;;17.00;71.90;;;;;;4926902;28;90137;-46
2022/12/25 08:23:17;;;;;;;69.10;51.05;;;16.90;72.00;;;;;;4928400;28;90388;-50
2022/12/25 08:25:42;;;;;;;68.55;50.85;;;16.90;72.00;;;;;;4924068;28;90296;-51
2022/12/25 08:28:08;;;;;;;68.68;50.60;;;16.90;71.90;;;;;;4928879;28;90420;-46
2022/12/25 08:30:33;;;;;;;68.30;50.85;;;16.90;71.90;;;;;;4919900;28;93543;-49
2022/12/25 08:32:59;;;;;;;68.75;50.72;;;16.90;71.90;;;;;;4930640;28;91449;-45
2022/12/25 08:35:25;;;;;;;68.80;50.60;;;16.90;72.00;;;;;;4927009;28;91554;-49
2022/12/25 08:37:51;;;;;;;69.05;50.75;;;16.90;72.00;;;;;;4929309;28;90315;-49
2022/12/25 08:40:17;;;;;;;71.00;50.75;;;16.90;71.90;;;;;;4930858;28;90076;-48
2022/12/25 08:42:42;;;;;;;68.40;50.53;;;16.90;71.90;;;;;;4925999;28;91015;-48
2022/12/25 08:45:09;;;;;;;69.05;50.53;;;16.90;71.90;;;;;;4927500;28;90240;-47
2022/12/25 08:47:34;;;;;;;67.68;50.42;;;16.90;72.00;;;;;;4920847;28;90209;-47
2022/12/25 08:50:00;;;;;;;68.85;50.80;;;16.90;71.90;;;;;;4926245;28;91753;-49
2022/12/25 08:52:27;;;;;;;69.90;50.80;;;16.90;71.90;;;;;;4920919;28;89904;-49
2022/12/25 08:54:53;;;;;;;68.78;50.75;;;16.90;71.90;;;;;;4928749;28;90002;-50
2022/12/25 08:57:19;;;;;;;68.60;51.40;;;16.90;71.90;;;;;;4925657;28;91177;-47
2022/12/25 08:59:44;;;;;;;68.63;50.65;;;16.90;71.90;;;;;;4930772;28;91419;-47
2022/12/25 09:02:11;;;;;;;68.50;50.38;;;16.90;71.90;;;;;;4919833;28;90103;-47
2022/12/25 09:04:37;;;;;;;68.60;50.65;;;16.90;71.90;;;;;;4927817;28;93588;-50
2022/12/25 09:07:02;;;;;;;70.13;51.33;;;16.90;71.90;;;;;;4922513;28;95532;-48
2022/12/25 09:09:28;;;;;;;70.05;51.10;;;16.90;71.80;;;;;;4928656;28;90620;-47
2022/12/25 09:11:54;;;;;;;70.70;50.95;;;16.80;71.80;;;;;;4925001;28;91152;-46
2022/12/25 09:14:20;;;;;;;68.40;50.83;;;16.90;71.80;;;;;;4929086;28;89762;-49
2022/12/25 09:16:48;;;;;;;68.88;50.67;;;16.90;71.90;;;;;;4929977;28;91417;-47
2022/12/25 09:19:13;;;;;;;68.63;51.00;;;16.90;71.80;;;;;;4931134;28;90323;-46
2022/12/25 09:21:39;;;;;;;69.57;50.75;;;16.90;71.80;;;;;;4925048;28;91872;-48
2022/12/25 09:24:05;;;;;;;68.55;51.08;;;16.80;71.80;;;;;;4926178;28;90210;-45
2022/12/25 09:26:30;;;;;;;70.25;50.60;;;16.80;71.80;;;;;;4925683;28;96561;-48
2022/12/25 09:28:56;;;;;;;68.13;50.85;;;16.80;71.80;;;;;;4925315;28;92301;-49
2022/12/25 09:31:22;;;;;;;69.10;50.95;;;16.80;71.80;;;;;;4919823;28;90456;-48
2022/12/25 09:33:48;;;;;;;69.30;50.95;;;16.80;71.80;;;;;;4925833;28;90040;-49
2022/12/25 09:36:14;;;;;;;68.35;50.90;;;16.80;71.80;;;;;;4927035;28;91046;-50
2022/12/25 09:38:40;;;;;;;69.28;51.40;;;16.80;71.80;;;;;;4918372;28;89904;-50
2022/12/25 09:41:27;;;;;;;68.32;50.35;;;16.80;71.80;;;;;;4926014;28;90423;-51
2022/12/25 09:44:14;;;;;;;69.28;51.00;;;16.80;71.80;;;;;;4920932;28;90208;-49
2022/12/25 09:46:47;;;;;;;69.13;51.30;;;16.80;71.80;;;;;;4916761;28;91845;-49
2022/12/25 09:49:17;;;;;;;68.97;51.00;;;16.80;71.80;;;;;;4927710;28;89811;-47
2022/12/25 09:51:47;;;;;;;69.10;51.03;;;16.80;71.70;;;;;;4932937;28;90360;-51
2022/12/25 09:54:27;;;;;;;67.70;50.30;;;16.80;71.60;;;;;;4927664;28;91400;-52
2022/12/25 09:56:52;;;;;;;68.40;50.80;;;16.80;72.10;;;;;;4916706;28;91210;-48
2022/12/25 09:59:26;;;;;;;68.22;51.00;;;16.80;72.30;;;;;;4918881;28;90135;-50
2022/12/25 10:02:26;;;;;;;69.70;50.78;;;16.80;72.70;;;;;;4928473;28;90187;-53
2022/12/25 10:05:24;;;;;;;68.90;50.95;;;16.80;73.10;;;;;;4923032;28;89805;-49
2022/12/25 10:07:58;;;;;;;67.93;50.72;;;16.80;73.40;;;;;;4920741;28;90651;-47
2022/12/25 10:10:45;;;;;;;69.75;50.97;;;16.80;73.20;;;;;;4928746;28;90052;-48
2022/12/25 10:13:30;;;;;;;73.72;51.10;;;16.80;73.50;;;;;;4924645;28;94114;-51
2022/12/25 10:16:20;;;;;;;70.55;50.53;;;16.90;73.30;;;;;;4932292;28;90016;-48
2022/12/25 10:18:51;;;;;;;68.63;50.95;;;16.90;73.30;;;;;;4917879;28;90716;-48
2022/12/25 10:21:18;;;;;;;69.75;51.22;;;16.80;73.90;;;;;;4925022;28;90107;-50
2022/12/25 10:23:52;;;;;;;68.75;50.80;;;16.70;74.70;;;;;;4931021;28;89612;-49
2022/12/25 10:26:21;;;;;;;70.35;50.65;;;16.80;75.00;;;;;;4924878;28;89535;-51
2022/12/25 10:28:54;;;;;;;72.45;50.90;;;16.80;75.20;;;;;;4918635;28;90537;-51
2022/12/25 10:31:26;;;;;;;73.25;51.15;;;16.80;75.00;;;;;;4927380;28;90534;-50
2022/12/25 10:33:52;;;;;;;70.90;51.42;;;16.80;75.40;;;;;;4923246;28;90483;-47
2022/12/25 10:36:22;;;;;;;70.15;51.25;;;16.80;74.90;;;;;;4934876;28;90357;-48
2022/12/25 10:38:48;;;;;;;73.10;52.28;;;16.70;74.90;;;;;;4924787;28;91972;-46
2022/12/25 10:41:38;;;;;;;73.00;52.97;;;16.70;74.70;;;;;;4923996;28;94016;-47
2022/12/25 10:44:19;;;;;;;69.18;51.47;;;16.70;74.70;;;;;;4926823;28;89881;-46
2022/12/25 10:46:51;;;;;;;70.68;51.25;;;16.70;74.60;;;;;;4926474;28;90175;-48
2022/12/25 10:49:21;;;;;;;70.95;51.72;;;16.70;74.40;;;;;;4934857;28;90097;-50
2022/12/25 10:51:47;;;;;;;71.88;51.50;;;16.70;74.10;;;;;;4912758;28;90460;-50
2022/12/25 10:54:23;;;;;;;70.57;52.13;;;16.70;74.10;;;;;;4917571;28;91478;-48
2022/12/25 10:57:02;;;;;;;73.38;51.72;;;16.70;74.10;;;;;;4927866;28;89071;-46
2022/12/25 10:59:32;;;;;;;69.93;51.70;;;16.70;74.30;;;;;;4922687;28;91395;-51
2022/12/25 11:02:12;;;;;;;72.88;51.65;;;16.70;74.20;;;;;;4913757;28;92304;-50
2022/12/25 11:04:38;;;;;;;75.78;51.97;;;16.70;74.10;;;;;;4918912;28;90831;-50
2022/12/25 11:07:07;;;;;;;72.00;51.65;;;16.70;73.70;;;;;;4923385;28;95066;-49
2022/12/25 11:09:33;;;;;;;73.18;52.42;;;16.80;73.80;;;;;;4916841;28;90481;-48
2022/12/25 11:11:59;;;;;;;74.13;51.80;;;16.80;73.40;;;;;;4927720;28;90129;-51
2022/12/25 11:14:26;;;;;;;77.22;51.83;;;16.80;73.20;;;;;;4919637;28;90228;-48
2022/12/25 11:16:52;;;;;;;77.93;52.67;;;16.80;73.10;;;;;;4919608;28;90409;-49
2022/12/25 11:19:29;;;;;;;77.43;52.35;;;16.70;73.10;;;;;;4925984;28;95601;-51
2022/12/25 11:21:58;;;;;;;73.80;52.65;;;16.70;73.20;;;;;;4930285;28;90029;-50
2022/12/25 11:24:32;;;;;;;77.63;53.13;;;16.70;73.10;;;;;;4925822;28;92453;-49
2022/12/25 11:27:00;;;;;;;75.85;52.72;;;16.70;73.10;;;;;;4916484;28;90612;-49
2022/12/25 11:30:02;;;;;;;76.40;53.25;;;16.70;73.00;;;;;;4925315;28;90998;-52
2022/12/25 11:32:47;;;;;;;76.63;53.13;;;16.70;73.10;;;;;;4923386;28;90761;-48
2022/12/25 11:35:16;;;;;;;81.22;53.75;;;16.70;73.00;;;;;;4923241;28;89902;-49
2022/12/25 11:37:50;;;;;;;75.90;53.17;;;16.70;72.90;;;;;;4928327;28;90848;-48
2022/12/25 11:40:43;;;;;;;75.07;53.08;;;16.70;73.00;;;;;;4933582;28;90373;-50
2022/12/25 11:43:17;;;;;;;74.38;53.10;;;16.70;72.90;;;;;;4932445;28;94371;-46
2022/12/25 11:46:15;;;;;;;76.57;53.75;;;16.70;72.90;;;;;;4930323;28;90309;-50
2022/12/25 11:48:54;;;;;;;76.57;53.35;;;16.70;72.90;;;;;;4921565;28;90283;-47
2022/12/25 11:51:25;;;;;;;79.25;53.88;;;16.70;72.90;;;;;;4925001;28;90542;-46
2022/12/25 11:53:54;;;;;;;73.23;52.50;;;16.70;72.90;;;;;;4922705;28;90635;-48
2022/12/25 11:56:24;;;;;;;78.18;52.95;;;16.70;72.90;;;;;;4929750;28;90542;-48
2022/12/25 11:58:51;;;;;;;74.43;53.35;;;16.70;72.90;;;;;;4928243;28;95367;-50
2022/12/25 12:01:28;;;;;;;72.50;52.35;;;16.60;72.80;;;;;;4921298;28;89742;-50
2022/12/25 12:03:54;;;;;;;74.18;52.60;;;16.70;72.90;;;;;;4941715;28;89956;-51
2022/12/25 12:06:34;;;;;;;74.75;52.95;;;16.60;72.80;;;;;;4925106;28;90626;-48
2022/12/25 12:09:20;;;;;;;74.15;52.70;;;16.60;72.80;;;;;;4929340;28;91523;-49
2022/12/25 12:12:02;;;;;;;75.97;53.08;;;16.60;72.80;;;;;;4919804;28;91806;-51
2022/12/25 12:15:02;;;;;;;73.65;52.45;;;16.60;72.70;;;;;;4939331;28;89079;-49
2022/12/25 12:17:27;;;;;;;74.25;52.55;;;16.60;72.70;;;;;;4927922;28;94825;-48
2022/12/25 12:19:53;;;;;;;74.30;52.95;;;16.70;72.80;;;;;;4933591;28;89639;-47
2022/12/25 12:22:23;;;;;;;78.80;52.72;;;16.60;72.60;;;;;;4925603;28;94019;-46
2022/12/25 12:25:03;;;;;;;73.82;52.30;;;16.60;72.70;;;;;;4932186;28;92240;-47
2022/12/25 12:27:36;;;;;;;71.35;52.33;;;16.60;72.70;;;;;;4935232;28;90313;-47
2022/12/25 12:30:04;;;;;;;73.57;52.90;;;16.60;72.70;;;;;;4932910;28;90355;-48
2022/12/25 12:32:43;;;;;;;72.35;52.28;;;16.60;72.80;;;;;;4926454;28;92811;-51
2022/12/25 12:35:16;;;;;;;72.38;52.50;;;16.60;72.70;;;;;;4927302;28;92992;-47
2022/12/25 12:37:47;;;;;;;74.88;52.45;;;16.60;72.60;;;;;;4917044;28;91779;-49
2022/12/25 12:40:22;;;;;;;72.13;52.50;;;16.60;72.60;;;;;;4935792;28;88985;-47
2022/12/25 12:42:49;;;;;;;72.55;52.63;;;16.60;72.50;;;;;;4920053;28;90358;-53
2022/12/25 12:45:27;;;;;;;76.32;52.38;;;16.60;72.60;;;;;;4927314;28;94893;-49
2022/12/25 12:47:54;;;;;;;73.15;52.65;;;16.60;72.50;;;;;;4916285;28;91879;-48
2022/12/25 12:50:36;;;;;;;72.82;52.95;;;16.50;72.50;;;;;;4930209;28;90786;-47
2022/12/25 12:53:20;;;;;;;75.45;52.70;;;16.60;72.60;;;;;;4929626;28;90795;-49
2022/12/25 12:55:46;;;;;;;74.75;52.88;;;16.50;72.50;;;;;;4927288;28;90495;-50
2022/12/25 12:58:26;;;;;;;71.15;52.38;;;16.60;72.60;;;;;;4926291;28;90145;-49
2022/12/25 13:01:17;;;;;;;71.65;52.25;;;16.50;72.50;;;;;;4941906;28;90367;-47
2022/12/25 13:04:07;;;;;;;72.23;52.27;;;16.50;72.60;;;;;;4931913;28;90719;-48
2022/12/25 13:06:42;;;;;;;73.80;52.20;;;16.50;72.60;;;;;;4934631;28;89263;-47
2022/12/25 13:09:24;;;;;;;73.20;52.58;;;16.50;72.60;;;;;;4922515;28;90163;-51
2022/12/25 13:11:50;;;;;;;71.85;52.08;;;16.50;72.50;;;;;;4922633;28;93356;-50
2022/12/25 13:14:20;;;;;;;73.93;52.17;;;16.50;72.50;;;;;;4919563;28;91977;-46
2022/12/25 13:16:48;;;;;;;72.20;52.13;;;16.50;72.50;;;;;;4912702;28;91212;-47
2022/12/25 13:19:26;;;;;;;70.78;51.97;;;16.50;72.30;;;;;;4935277;28;89883;-50
2022/12/25 13:21:52;;;;;;;71.93;52.25;;;16.50;72.40;;;;;;4919053;28;91495;-51
2022/12/25 13:24:27;;;;;;;72.43;51.53;;;16.50;72.40;;;;;;4927845;28;90454;-49
2022/12/25 13:26:53;;;;;;;72.13;52.15;;;16.50;72.40;;;;;;4927929;28;90171;-52
2022/12/25 13:29:34;;;;;;;71.65;51.90;;;16.50;72.30;;;;;;4934966;28;90350;-50
2022/12/25 13:32:02;;;;;;;71.63;51.47;;;16.50;72.40;;;;;;4933523;28;90671;-47
2022/12/25 13:34:40;;;;;;;74.15;52.00;;;16.50;72.50;;;;;;4924125;28;90087;-49
2022/12/25 13:37:14;;;;;;;71.72;51.60;;;16.40;72.50;;;;;;4927923;28;89957;-47
2022/12/25 13:40:12;;;;;;;71.53;51.83;;;16.50;72.50;;;;;;4922467;28;91851;-50
2022/12/25 13:42:41;;;;;;;71.05;51.75;;;16.50;72.40;;;;;;4929019;28;91116;-51
2022/12/25 13:45:29;;;;;;;71.43;51.88;;;16.50;72.30;;;;;;4924477;28;90035;-47
2022/12/25 13:47:55;;;;;;;71.72;51.88;;;16.40;72.30;;;;;;4929667;28;90555;-49
2022/12/25 13:50:25;;;;;;;71.30;51.92;;;16.40;72.30;;;;;;4928395;28;90230;-50
2022/12/25 13:52:52;;;;;;;72.43;52.03;;;16.40;72.30;;;;;;4924514;28;92660;-52
2022/12/25 13:55:25;;;;;;;71.63;51.30;;;16.40;72.20;;;;;;4932510;28;94943;-51
2022/12/25 13:57:59;;;;;;;69.80;51.42;;;16.40;72.30;;;;;;4920537;28;89998;-52
2022/12/25 14:00:36;;;;;;;73.15;51.67;;;16.40;72.30;;;;;;4924746;28;89985;-52
2022/12/25 14:03:06;;;;;;;70.40;51.83;;;16.40;72.40;;;;;;4926391;28;93054;-50
2022/12/25 14:05:37;;;;;;;69.85;51.45;;;16.40;72.30;;;;;;4919552;28;93199;-50
2022/12/25 14:08:12;;;;;;;72.30;51.70;;;16.40;72.20;;;;;;4919782;28;91417;-51
2022/12/25 14:10:39;;;;;;;70.57;51.72;;;16.40;72.20;;;;;;4917950;28;95261;-48
2022/12/25 14:13:10;;;;;;;70.72;51.15;;;16.40;72.10;;;;;;4930707;28;89655;-48
2022/12/25 14:15:38;;;;;;;72.22;51.47;;;16.40;72.10;;;;;;4932114;28;90230;-47
2022/12/25 14:18:04;;;;;;;71.63;51.50;;;16.40;72.10;;;;;;4925340;28;90632;-51
2022/12/25 14:20:38;;;;;;;69.10;51.08;;;16.40;72.20;;;;;;4925524;28;89601;-47
2022/12/25 14:23:04;;;;;;;71.63;51.60;;;16.40;72.20;;;;;;4927887;28;91133;-52
2022/12/25 14:25:35;;;;;;;70.85;51.70;;;16.40;72.10;;;;;;4924726;28;91486;-50
2022/12/25 14:28:07;;;;;;;69.85;51.40;;;16.40;72.10;;;;;;4921526;28;90569;-49
2022/12/25 14:30:34;;;;;;;70.45;51.15;;;16.40;72.10;;;;;;4921163;28;90799;-49